createdAt,value
2018-12-01T00:00:27.490Z,29.27
2018-12-01T00:02:56.798Z,26.20
2018-12-01T00:05:25.610Z,26.07
2018-12-01T00:07:54.781Z,28.87
2018-12-01T00:10:23.687Z,25.87
2018-12-01T00:12:52.510Z,27.23
2018-12-01T00:15:25.356Z,29.33
2018-12-01T00:17:54.961Z,29.43
2018-12-01T00:20:24.988Z,30.50
2018-12-01T00:22:53.806Z,28.80
2018-12-01T00:25:22.594Z,28.33
2018-12-01T00:27:51.370Z,29.90
2018-12-01T00:30:22.931Z,29.07
2018-12-01T00:32:52.367Z,29.80
2018-12-01T00:35:21.484Z,29.00
2018-12-01T00:37:50.615Z,28.50
2018-12-01T00:40:20.213Z,27.77
2018-12-01T00:42:49.356Z,28.13
2018-12-01T00:45:22.037Z,28.37
2018-12-01T00:47:51.722Z,27.57
2018-12-01T00:50:22.754Z,29.07
2018-12-01T00:52:52.329Z,28.67
2018-12-01T00:55:21.247Z,28.47
2018-12-01T00:57:50.029Z,27.73
2018-12-01T01:00:21.404Z,29.40
2018-12-01T01:02:51.920Z,29.40
2018-12-01T01:05:21.680Z,31.77
2018-12-01T01:07:50.673Z,30.23
2018-12-01T01:10:20.513Z,29.50
2018-12-01T01:12:49.261Z,30.30
2018-12-01T01:15:18.048Z,29.83
2018-12-01T01:17:47.193Z,30.50
2018-12-01T01:20:17.737Z,29.00
2018-12-01T01:22:46.792Z,29.13
2018-12-01T01:25:16.188Z,28.83
2018-12-01T01:27:45.621Z,29.33
2018-12-01T01:30:18.357Z,28.87
2018-12-01T01:32:47.434Z,28.80
2018-12-01T01:35:16.592Z,28.43
2018-12-01T01:37:45.723Z,28.47
2018-12-01T01:40:15.865Z,28.03
2018-12-01T01:42:44.729Z,28.90
2018-12-01T01:45:17.147Z,29.50
2018-12-01T01:47:46.361Z,27.67
2018-12-01T01:50:17.387Z,27.47
2018-12-01T01:52:46.445Z,29.00
2018-12-01T01:55:15.204Z,28.87
2018-12-01T01:57:44.405Z,27.30
2018-12-01T02:00:15.469Z,29.40
2018-12-01T02:02:45.115Z,29.40
2018-12-01T02:05:14.165Z,29.07
2018-12-01T02:07:42.958Z,29.37
2018-12-01T02:10:12.855Z,28.97
2018-12-01T02:12:41.976Z,28.43
2018-12-01T02:15:11.533Z,28.27
2018-12-01T02:17:40.490Z,28.93
2018-12-01T02:20:13.532Z,29.77
2018-12-01T02:22:42.822Z,27.60
2018-12-01T02:25:15.393Z,28.90
2018-12-01T02:27:44.640Z,29.63
2018-12-01T02:30:17.183Z,28.03
2018-12-01T02:32:46.381Z,28.73
2018-12-01T02:35:18.444Z,29.27
2018-12-01T02:37:47.388Z,29.17
2018-12-01T02:40:16.948Z,29.50
2018-12-01T02:42:45.694Z,29.63
2018-12-01T02:45:25.876Z,29.93
2018-12-01T02:47:55.175Z,28.57
2018-12-01T02:50:26.796Z,29.57
2018-12-01T02:52:56.441Z,29.03
2018-12-01T02:55:25.539Z,30.70
2018-12-01T02:57:54.338Z,31.87
2018-12-01T03:00:23.184Z,31.10
2018-12-01T03:02:52.201Z,31.37
2018-12-01T03:05:22.693Z,30.97
2018-12-01T03:07:52.389Z,32.10
2018-12-01T03:10:22.187Z,30.30
2018-12-01T03:12:52.879Z,31.37
2018-12-01T03:15:21.726Z,31.67
2018-12-01T03:17:51.209Z,29.87
2018-12-01T03:20:20.037Z,29.33
2018-12-01T03:22:49.336Z,31.13
2018-12-01T03:25:20.119Z,29.90
2018-12-01T03:27:51.180Z,30.87
2018-12-01T03:30:23.839Z,30.43
2018-12-01T03:32:53.715Z,31.30
2018-12-01T03:35:23.529Z,29.83
2018-12-01T03:37:52.595Z,29.10
2018-12-01T03:40:22.317Z,29.83
2018-12-01T03:42:52.118Z,31.83
2018-12-01T03:45:21.895Z,30.27
2018-12-01T03:47:51.091Z,31.13
2018-12-01T03:50:24.653Z,29.80
2018-12-01T03:52:55.759Z,31.37
2018-12-01T03:55:26.953Z,29.57
2018-12-01T03:57:55.969Z,30.20
2018-12-01T04:00:26.199Z,30.50
2018-12-01T04:02:56.260Z,31.17
2018-12-01T04:05:25.607Z,30.83
2018-12-01T04:07:54.371Z,29.77
2018-12-01T04:10:23.258Z,30.60
2018-12-01T04:12:52.268Z,29.80
2018-12-01T04:15:21.121Z,29.63
2018-12-01T04:17:50.263Z,29.00
2018-12-01T04:20:19.013Z,30.47
2018-12-01T04:22:47.771Z,28.77
2018-12-01T04:25:16.633Z,31.00
2018-12-01T04:27:45.582Z,30.17
2018-12-01T04:30:17.662Z,29.80
2018-12-01T04:32:46.642Z,30.70
2018-12-01T04:35:17.145Z,28.77
2018-12-01T04:37:47.629Z,28.97
2018-12-01T04:40:16.492Z,28.83
2018-12-01T04:42:46.434Z,29.57
2018-12-01T04:45:15.711Z,29.70
2018-12-01T04:47:44.566Z,30.87
2018-12-01T04:50:14.555Z,30.87
2018-12-01T04:52:43.538Z,32.03
2018-12-01T04:55:14.429Z,34.30
2018-12-01T04:57:43.185Z,30.20
2018-12-01T05:00:14.080Z,30.30
2018-12-01T05:02:43.425Z,30.17
2018-12-01T05:05:15.137Z,30.00
2018-12-01T05:07:43.919Z,30.73
2018-12-01T05:10:13.971Z,27.73
2018-12-01T05:12:42.756Z,28.80
2018-12-01T05:15:14.308Z,30.13
2018-12-01T05:17:43.085Z,29.63
2018-12-01T05:20:13.745Z,29.87
2018-12-01T05:22:42.821Z,30.23
2018-12-01T05:25:11.669Z,32.23
2018-12-01T05:27:40.445Z,30.23
2018-12-01T05:30:09.366Z,29.97
2018-12-01T05:32:38.933Z,29.53
2018-12-01T05:35:12.051Z,29.97
2018-12-01T05:37:41.423Z,30.63
2018-12-01T05:40:11.190Z,31.17
2018-12-01T05:42:39.940Z,28.87
2018-12-01T05:45:24.566Z,29.53
2018-12-01T05:47:53.403Z,30.23
2018-12-01T05:50:22.170Z,30.97
2018-12-01T05:52:51.796Z,29.43
2018-12-01T05:55:20.586Z,33.20
2018-12-01T05:57:49.596Z,34.53
2018-12-01T06:00:18.877Z,43.30
2018-12-01T06:02:47.662Z,38.83
2018-12-01T06:05:16.549Z,39.53
2018-12-01T06:07:45.844Z,41.20
2018-12-01T06:10:21.853Z,39.10
2018-12-01T06:12:51.992Z,43.87
2018-12-01T06:15:21.617Z,40.03
2018-12-01T06:17:50.568Z,41.47
2018-12-01T06:20:23.415Z,40.07
2018-12-01T06:22:52.510Z,42.70
2018-12-01T06:25:22.569Z,41.87
2018-12-01T06:27:51.558Z,38.33
2018-12-01T06:30:20.921Z,36.30
2018-12-01T06:32:51.699Z,37.37
2018-12-01T06:35:20.509Z,36.07
2018-12-01T06:37:50.621Z,37.40
2018-12-01T06:40:20.272Z,38.23
2018-12-01T06:42:49.394Z,42.30
2018-12-01T06:45:18.427Z,43.53
2018-12-01T06:47:47.451Z,46.07
2018-12-01T06:50:22.853Z,44.93
2018-12-01T06:52:52.730Z,45.53
2018-12-01T06:55:22.721Z,44.63
2018-12-01T06:57:51.898Z,42.63
2018-12-01T07:00:24.126Z,46.50
2018-12-01T07:02:54.190Z,40.83
2018-12-01T07:05:23.310Z,38.23
2018-12-01T07:07:52.197Z,35.23
2018-12-01T07:10:21.933Z,36.20
2018-12-01T07:12:56.899Z,33.17
2018-12-01T07:15:32.117Z,34.70
2018-12-01T07:18:01.284Z,36.53
2018-12-01T07:20:30.045Z,35.50
2018-12-01T07:22:59.349Z,35.17
2018-12-01T07:25:28.110Z,31.40
2018-12-01T07:27:56.906Z,39.13
2018-12-01T07:30:25.751Z,34.87
2018-12-01T07:32:54.522Z,30.13
2018-12-01T07:35:23.635Z,36.87
2018-12-01T07:37:52.447Z,33.67
2018-12-01T07:40:21.185Z,32.23
2018-12-01T07:42:52.750Z,27.97
2018-12-01T07:45:22.114Z,30.10
2018-12-01T07:47:50.881Z,31.23
2018-12-01T07:50:19.750Z,31.50
2018-12-01T07:52:51.217Z,31.77
2018-12-01T07:55:21.178Z,29.03
2018-12-01T07:57:50.014Z,31.13
2018-12-01T08:00:18.813Z,31.30
2018-12-01T08:02:48.610Z,33.97
2018-12-01T08:05:17.921Z,33.60
2018-12-01T08:07:46.793Z,28.50
2018-12-01T08:10:16.145Z,25.90
2018-12-01T08:12:45.015Z,29.77
2018-12-01T08:15:15.541Z,32.83
2018-12-01T08:17:44.819Z,33.63
2018-12-01T08:20:14.463Z,37.63
2018-12-01T08:22:43.246Z,31.13
2018-12-01T08:25:20.610Z,28.80
2018-12-01T08:27:52.743Z,29.27
2018-12-01T08:30:22.895Z,29.93
2018-12-01T08:32:51.661Z,37.43
2018-12-01T08:35:20.873Z,33.63
2018-12-01T08:37:49.973Z,34.17
2018-12-01T08:40:20.264Z,32.83
2018-12-01T08:42:49.130Z,33.17
2018-12-01T08:45:17.910Z,31.77
2018-12-01T08:47:46.698Z,32.60
2018-12-01T08:50:19.346Z,33.37
2018-12-01T08:52:48.144Z,30.40
2018-12-01T08:55:18.714Z,31.77
2018-12-01T08:57:47.847Z,31.57
2018-12-01T09:00:18.796Z,28.80
2018-12-01T09:02:49.338Z,28.90
2018-12-01T09:05:18.118Z,29.60
2018-12-01T09:07:46.901Z,28.40
2018-12-01T09:10:16.022Z,28.30
2018-12-01T09:12:44.862Z,22.37
2018-12-01T09:15:14.010Z,26.70
2018-12-01T09:17:42.805Z,25.27
2018-12-01T09:20:12.408Z,26.17
2018-12-01T09:22:43.021Z,27.33
2018-12-01T09:25:12.965Z,25.73
2018-12-01T09:27:41.741Z,27.00
2018-12-01T09:30:26.266Z,26.63
2018-12-01T09:32:55.042Z,28.03
2018-12-01T09:35:23.857Z,26.73
2018-12-01T09:37:52.718Z,27.17
2018-12-01T09:40:22.336Z,28.13
2018-12-01T09:42:51.382Z,24.50
2018-12-01T09:45:22.765Z,25.43
2018-12-01T09:47:53.130Z,23.50
2018-12-01T09:50:21.951Z,24.17
2018-12-01T09:52:52.401Z,23.70
2018-12-01T09:55:23.306Z,25.13
2018-12-01T09:57:52.637Z,23.13
2018-12-01T10:00:25.557Z,22.80
2018-12-01T10:02:54.692Z,22.00
2018-12-01T10:05:23.575Z,21.77
2018-12-01T10:07:52.340Z,19.37
2018-12-01T10:10:22.382Z,22.30
2018-12-01T10:12:52.251Z,22.63
2018-12-01T10:15:23.867Z,19.50
2018-12-01T10:17:52.242Z,21.97
2018-12-01T10:20:22.872Z,19.93
2018-12-01T10:22:52.149Z,20.93
2018-12-01T10:25:20.981Z,21.60
2018-12-01T10:27:49.825Z,19.97
2018-12-01T10:30:19.680Z,19.27
2018-12-01T10:32:49.366Z,19.57
2018-12-01T10:35:23.094Z,21.37
2018-12-01T10:37:57.257Z,22.70
2018-12-01T10:40:26.939Z,17.93
2018-12-01T10:42:55.750Z,18.70
2018-12-01T10:45:24.553Z,19.40
2018-12-01T10:47:53.429Z,19.17
2018-12-01T10:50:23.293Z,17.73
2018-12-01T10:52:54.426Z,20.73
2018-12-01T10:55:27.988Z,20.27
2018-12-01T10:58:03.052Z,18.37
2018-12-01T11:00:37.773Z,18.20
2018-12-01T11:03:12.697Z,18.27
2018-12-01T11:05:42.043Z,17.20
2018-12-01T11:08:12.272Z,17.90
2018-12-01T11:10:41.564Z,18.47
2018-12-01T11:13:10.394Z,18.47
2018-12-01T11:15:39.645Z,17.53
2018-12-01T11:18:09.019Z,17.50
2018-12-01T11:20:39.252Z,16.07
2018-12-01T11:23:08.481Z,17.23
2018-12-01T11:25:38.019Z,16.13
2018-12-01T11:28:07.042Z,15.10
2018-12-01T11:30:38.084Z,14.93
2018-12-01T11:33:07.208Z,15.10
2018-12-01T11:35:36.168Z,14.03
2018-12-01T11:38:05.762Z,13.20
2018-12-01T11:40:34.594Z,14.60
2018-12-01T11:43:03.413Z,13.27
2018-12-01T11:45:32.701Z,13.50
2018-12-01T11:48:01.505Z,14.13
2018-12-01T11:50:30.341Z,13.40
2018-12-01T11:52:59.193Z,14.03
2018-12-01T11:55:28.167Z,14.10
2018-12-01T11:57:57.321Z,13.63
2018-12-01T12:00:26.810Z,14.83
2018-12-01T12:02:56.252Z,14.80
2018-12-01T12:05:25.221Z,15.30
2018-12-01T12:08:05.137Z,14.07
2018-12-01T12:10:34.248Z,15.50
2018-12-01T12:13:03.054Z,14.40
2018-12-01T12:15:31.850Z,13.70
2018-12-01T12:18:01.898Z,13.97
2018-12-01T12:20:31.308Z,13.20
2018-12-01T12:23:00.516Z,12.40
2018-12-01T12:25:29.635Z,11.33
2018-12-01T12:27:58.422Z,11.37
2018-12-01T12:30:27.234Z,10.80
2018-12-01T12:32:56.040Z,11.27
2018-12-01T12:35:25.070Z,11.60
2018-12-01T12:37:54.559Z,11.50
2018-12-01T12:40:26.516Z,11.23
2018-12-01T12:42:57.140Z,11.00
2018-12-01T12:45:27.202Z,11.80
2018-12-01T12:47:56.335Z,11.60
2018-12-01T12:50:25.117Z,11.40
2018-12-01T12:52:55.134Z,12.23
2018-12-01T12:55:25.083Z,12.07
2018-12-01T12:57:53.880Z,11.13
2018-12-01T13:00:24.502Z,12.17
2018-12-01T13:03:01.541Z,11.43
2018-12-01T13:05:32.545Z,12.33
2018-12-01T13:08:01.386Z,11.50
2018-12-01T13:10:30.156Z,11.07
2018-12-01T13:12:59.447Z,12.23
2018-12-01T13:15:28.210Z,11.53
2018-12-01T13:17:57.003Z,10.87
2018-12-01T13:20:25.821Z,9.87
2018-12-01T13:22:56.841Z,10.77
2018-12-01T13:25:25.627Z,10.23
2018-12-01T13:28:00.677Z,10.40
2018-12-01T13:30:30.978Z,10.63
2018-12-01T13:32:59.752Z,10.10
2018-12-01T13:35:28.705Z,9.97
2018-12-01T13:37:57.482Z,9.33
2018-12-01T13:40:26.291Z,10.93
2018-12-01T13:42:55.421Z,10.67
2018-12-01T13:45:24.198Z,9.63
2018-12-01T13:47:53.305Z,10.30
2018-12-01T13:50:22.266Z,10.60
2018-12-01T13:52:54.481Z,10.30
2018-12-01T13:55:23.506Z,10.67
2018-12-01T13:57:52.874Z,10.77
2018-12-01T14:00:23.245Z,10.40
2018-12-01T14:02:52.029Z,9.63
2018-12-01T14:05:20.978Z,9.33
2018-12-01T14:07:50.479Z,10.60
2018-12-01T14:10:22.228Z,9.80
2018-12-01T14:12:52.235Z,9.87
2018-12-01T14:15:22.765Z,9.37
2018-12-01T14:17:51.829Z,9.27
2018-12-01T14:20:21.163Z,9.77
2018-12-01T14:22:50.711Z,23.20
2018-12-01T14:25:20.584Z,9.90
2018-12-01T14:27:52.897Z,9.97
2018-12-01T14:30:22.014Z,10.90
2018-12-01T14:32:51.041Z,10.10
2018-12-01T14:35:22.311Z,9.57
2018-12-01T14:37:52.489Z,15.50
2018-12-01T14:40:21.593Z,11.73
2018-12-01T14:42:50.628Z,13.83
2018-12-01T14:45:19.419Z,11.07
2018-12-01T14:47:48.193Z,11.60
2018-12-01T14:50:17.185Z,11.13
2018-12-01T14:52:46.478Z,12.00
2018-12-01T14:55:16.381Z,12.40
2018-12-01T14:57:45.610Z,11.80
2018-12-01T15:00:16.755Z,12.80
2018-12-01T15:02:45.855Z,11.80
2018-12-01T15:05:14.861Z,14.27
2018-12-01T15:07:43.822Z,15.43
2018-12-01T15:10:13.922Z,15.20
2018-12-01T15:12:43.031Z,20.67
2018-12-01T15:15:13.559Z,19.67
2018-12-01T15:17:42.733Z,21.37
2018-12-01T15:20:12.601Z,24.77
2018-12-01T15:22:41.877Z,22.83
2018-12-01T15:25:11.843Z,25.77
2018-12-01T15:27:40.943Z,20.13
2018-12-01T15:30:15.114Z,18.90
2018-12-01T15:32:46.165Z,20.83
2018-12-01T15:35:15.169Z,28.03
2018-12-01T15:37:44.460Z,20.83
2018-12-01T15:40:17.531Z,19.70
2018-12-01T15:42:46.446Z,18.67
2018-12-01T15:45:16.259Z,16.43
2018-12-01T15:47:45.691Z,16.50
2018-12-01T15:50:18.589Z,16.23
2018-12-01T15:52:50.126Z,16.63
2018-12-01T15:55:19.466Z,18.07
2018-12-01T15:57:49.146Z,16.53
2018-12-01T16:00:19.858Z,16.60
2018-12-01T16:02:48.722Z,17.77
2018-12-01T16:05:18.622Z,18.70
2018-12-01T16:07:48.582Z,18.17
2018-12-01T16:10:18.441Z,18.80
2018-12-01T16:12:48.519Z,18.40
2018-12-01T16:15:19.165Z,23.83
2018-12-01T16:17:48.242Z,25.73
2018-12-01T16:20:17.327Z,24.73
2018-12-01T16:22:55.291Z,24.97
2018-12-01T16:25:35.495Z,21.87
2018-12-01T16:28:11.731Z,18.93
2018-12-01T16:30:46.663Z,20.70
2018-12-01T16:33:22.129Z,31.27
2018-12-01T16:35:52.072Z,21.40
2018-12-01T16:38:28.319Z,21.70
2018-12-01T16:43:43.689Z,23.30
2018-12-01T16:46:17.255Z,22.57
2018-12-01T16:48:57.288Z,20.57
2018-12-01T16:51:28.087Z,19.73
2018-12-01T16:54:02.516Z,19.20
2018-12-01T16:56:35.898Z,17.50
2018-12-01T16:59:08.937Z,17.93
2018-12-01T17:01:37.804Z,19.00
2018-12-01T17:04:06.811Z,20.20
2018-12-01T17:06:35.587Z,23.73
2018-12-01T17:09:05.691Z,22.80
2018-12-01T17:11:34.538Z,20.03
2018-12-01T17:14:03.706Z,20.30
2018-12-01T17:16:32.489Z,19.97
2018-12-01T17:19:01.266Z,19.17
2018-12-01T17:21:30.053Z,19.27
2018-12-01T17:23:58.858Z,19.80
2018-12-01T17:26:27.973Z,20.43
2018-12-01T17:28:56.764Z,20.57
2018-12-01T17:31:25.920Z,21.57
2018-12-01T17:33:54.894Z,21.13
2018-12-01T17:36:24.003Z,22.03
2018-12-01T17:38:52.786Z,22.27
2018-12-01T17:41:24.729Z,25.23
2018-12-01T17:43:56.970Z,40.93
2018-12-01T17:46:25.822Z,30.03
2018-12-01T17:48:55.199Z,28.20
2018-12-01T17:51:23.990Z,28.20
2018-12-01T17:53:54.959Z,25.57
2018-12-01T17:56:24.184Z,27.57
2018-12-01T17:58:53.003Z,28.23
2018-12-01T18:01:22.120Z,27.53
2018-12-01T18:03:50.938Z,30.50
2018-12-01T18:06:19.755Z,41.07
2018-12-01T18:08:49.235Z,34.97
2018-12-01T18:11:18.245Z,34.20
2018-12-01T18:13:47.045Z,38.13
2018-12-01T18:16:15.852Z,33.27
2018-12-01T18:18:44.825Z,28.60
2018-12-01T18:21:13.615Z,31.20
2018-12-01T18:23:42.402Z,29.53
2018-12-01T18:26:11.531Z,26.43
2018-12-01T18:28:43.357Z,39.40
2018-12-01T18:31:21.689Z,48.43
2018-12-01T18:33:53.522Z,34.70
2018-12-01T18:36:22.312Z,30.63
2018-12-01T18:38:51.733Z,35.07
2018-12-01T18:41:20.709Z,27.00
2018-12-01T18:43:49.913Z,25.80
2018-12-01T18:46:18.680Z,26.37
2018-12-01T18:48:47.482Z,23.30
2018-12-01T18:51:16.301Z,22.87
2018-12-01T18:53:45.086Z,26.30
2018-12-01T18:56:14.213Z,23.87
2018-12-01T18:58:43.001Z,24.33
2018-12-01T19:01:11.889Z,20.23
2018-12-01T19:03:40.699Z,22.00
2018-12-01T19:06:09.513Z,19.93
2018-12-01T19:08:38.563Z,21.30
2018-12-01T19:11:08.034Z,20.50
2018-12-01T19:13:36.841Z,19.50
2018-12-01T19:16:06.621Z,21.80
2018-12-01T19:18:35.405Z,21.63
2018-12-01T19:21:04.519Z,20.00
2018-12-01T19:23:33.828Z,20.67
2018-12-01T19:26:02.615Z,27.63
2018-12-01T19:28:31.407Z,20.57
2018-12-01T19:31:00.210Z,19.53
2018-12-01T19:33:29.082Z,20.87
2018-12-01T19:35:57.871Z,18.43
2018-12-01T19:38:28.410Z,18.20
2018-12-01T19:40:58.905Z,20.37
2018-12-01T19:43:27.690Z,21.13
2018-12-01T19:45:56.505Z,17.47
2018-12-01T19:48:25.614Z,20.00
2018-12-01T19:50:54.420Z,20.13
2018-12-01T19:53:23.553Z,25.10
2018-12-01T19:55:53.526Z,31.57
2018-12-01T19:58:25.439Z,24.37
2018-12-01T20:00:55.335Z,21.90
2018-12-01T20:03:25.186Z,20.57
2018-12-01T20:05:54.538Z,24.83
2018-12-01T20:08:23.955Z,20.00
2018-12-01T20:10:58.998Z,25.83
2018-12-01T20:13:49.249Z,25.13
2018-12-01T20:16:25.155Z,23.97
2018-12-01T20:18:54.376Z,23.70
2018-12-01T20:21:23.673Z,22.17
2018-12-01T20:23:52.794Z,23.97
2018-12-01T20:26:21.969Z,23.50
2018-12-01T20:28:51.409Z,24.60
2018-12-01T20:31:20.787Z,22.43
2018-12-01T20:33:53.423Z,18.47
2018-12-01T20:36:25.290Z,19.67
2018-12-01T20:39:00.287Z,18.80
2018-12-01T20:41:29.082Z,19.57
2018-12-01T20:43:58.116Z,17.47
2018-12-01T20:46:26.892Z,19.13
2018-12-01T20:48:55.909Z,20.40
2018-12-01T20:51:24.714Z,18.40
2018-12-01T20:53:53.593Z,16.47
2018-12-01T20:56:27.189Z,23.00
2018-12-01T20:58:56.058Z,20.53
2018-12-01T21:01:24.865Z,20.10
2018-12-01T21:03:53.669Z,15.40
2018-12-01T21:06:22.841Z,17.60
2018-12-01T21:08:52.164Z,16.53
2018-12-01T21:11:20.984Z,16.60
2018-12-01T21:13:50.044Z,17.37
2018-12-01T21:16:18.901Z,20.00
2018-12-01T21:18:48.032Z,22.50
2018-12-01T21:21:16.857Z,32.83
2018-12-01T21:23:45.655Z,30.10
2018-12-01T21:26:14.626Z,20.40
2018-12-01T21:28:43.471Z,22.43
2018-12-01T21:31:13.073Z,21.10
2018-12-01T21:33:41.858Z,22.13
2018-12-01T21:36:10.738Z,22.47
2018-12-01T21:38:39.541Z,22.40
2018-12-01T21:41:08.381Z,21.87
2018-12-01T21:43:37.769Z,19.73
2018-12-01T21:46:07.081Z,18.60
2018-12-01T21:48:35.943Z,25.57
2018-12-01T21:51:04.801Z,22.83
2018-12-01T21:53:33.933Z,21.13
2018-12-01T21:56:02.773Z,22.20
2018-12-01T21:58:31.593Z,19.10
2018-12-01T22:01:01.199Z,19.50
2018-12-01T22:03:30.734Z,23.67
2018-12-01T22:06:01.101Z,25.00
2018-12-01T22:08:30.865Z,21.97
2018-12-01T22:10:59.951Z,20.30
2018-12-01T22:13:29.016Z,24.57
2018-12-01T22:15:57.833Z,24.87
2018-12-01T22:18:26.845Z,25.27
2018-12-01T22:20:56.052Z,33.93
2018-12-01T22:23:25.196Z,23.07
2018-12-01T22:25:53.978Z,29.90
2018-12-01T22:28:22.841Z,27.07
2018-12-01T22:30:52.561Z,29.13
2018-12-01T22:33:25.242Z,30.40
2018-12-01T22:35:54.491Z,20.73
2018-12-01T22:38:24.513Z,24.47
2018-12-01T22:40:53.833Z,27.30
2018-12-01T22:43:23.153Z,29.17
2018-12-01T22:45:52.293Z,27.27
2018-12-01T22:48:22.558Z,24.23
2018-12-01T22:50:52.637Z,21.30
2018-12-01T22:53:21.644Z,21.27
2018-12-01T22:55:50.806Z,18.77
2018-12-01T22:58:20.657Z,22.43
2018-12-01T23:00:51.703Z,22.80
2018-12-01T23:03:20.943Z,18.80
2018-12-01T23:05:50.182Z,18.97
2018-12-01T23:08:20.607Z,16.73
2018-12-01T23:10:50.035Z,19.13
2018-12-01T23:13:18.907Z,17.77
2018-12-01T23:15:47.717Z,17.83
2018-12-01T23:18:17.846Z,18.07
2018-12-01T23:20:47.428Z,16.60
2018-12-01T23:23:16.437Z,16.77
2018-12-01T23:25:45.343Z,15.37
2018-12-01T23:28:14.168Z,16.10
2018-12-01T23:30:46.558Z,15.57
2018-12-01T23:33:20.381Z,15.77
2018-12-01T23:35:49.498Z,15.80
2018-12-01T23:38:19.037Z,15.93
2018-12-01T23:40:47.801Z,15.60
2018-12-01T23:43:16.574Z,15.90
2018-12-01T23:45:46.057Z,14.83
2018-12-01T23:48:15.465Z,15.70
2018-12-01T23:50:52.447Z,14.43
2018-12-01T23:53:21.733Z,14.57
2018-12-01T23:55:50.870Z,15.00
2018-12-01T23:58:23.293Z,14.53
